sensor_id;sensor_type;location;lat;lon;timestamp;P1;durP1;ratioP1;P2;durP2;ratioP2
71753;SDS011;59593;51.716;7.016;2024-03-23T00:55:33;14.90;;;4.43;;
71753;SDS011;59593;51.716;7.016;2024-03-23T00:57:59;14.87;;;3.77;;
71753;SDS011;59593;51.716;7.016;2024-03-23T01:00:24;14.20;;;4.63;;
71753;SDS011;59593;51.716;7.016;2024-03-23T01:02:50;22.07;;;5.17;;
71753;SDS011;59593;51.716;7.016;2024-03-23T01:05:15;16.97;;;4.47;;
71753;SDS011;59593;51.716;7.016;2024-03-23T01:07:41;14.43;;;4.67;;
71753;SDS011;59593;51.716;7.016;2024-03-23T01:10:07;16.43;;;4.30;;
71753;SDS011;59593;51.716;7.016;2024-03-23T01:12:32;20.90;;;4.77;;
71753;SDS011;59593;51.716;7.016;2024-03-23T01:14:58;14.93;;;4.77;;
71753;SDS011;59593;51.716;7.016;2024-03-23T01:17:23;16.80;;;4.37;;
71753;SDS011;59593;51.716;7.016;2024-03-23T01:19:50;15.40;;;4.17;;
71753;SDS011;59593;51.716;7.016;2024-03-23T01:22:15;15.87;;;5.57;;
71753;SDS011;59593;51.716;7.016;2024-03-23T01:24:41;16.70;;;7.30;;
71753;SDS011;59593;51.716;7.016;2024-03-23T01:27:07;17.67;;;9.63;;
71753;SDS011;59593;51.716;7.016;2024-03-23T01:29:34;16.93;;;4.87;;
71753;SDS011;59593;51.716;7.016;2024-03-23T01:31:59;16.53;;;4.63;;
71753;SDS011;59593;51.716;7.016;2024-03-23T01:34:25;13.33;;;4.70;;
71753;SDS011;59593;51.716;7.016;2024-03-23T01:36:56;10.23;;;3.87;;
71753;SDS011;59593;51.716;7.016;2024-03-23T01:39:22;15.80;;;4.07;;
71753;SDS011;59593;51.716;7.016;2024-03-23T01:41:47;14.43;;;4.53;;
71753;SDS011;59593;51.716;7.016;2024-03-23T01:44:13;11.23;;;4.70;;
71753;SDS011;59593;51.716;7.016;2024-03-23T01:46:40;14.63;;;4.80;;
71753;SDS011;59593;51.716;7.016;2024-03-23T01:49:07;14.73;;;4.83;;
71753;SDS011;59593;51.716;7.016;2024-03-23T01:51:33;15.13;;;4.57;;
71753;SDS011;59593;51.716;7.016;2024-03-23T01:53:59;17.07;;;4.90;;
71753;SDS011;59593;51.716;7.016;2024-03-23T01:56:28;13.30;;;4.47;;
71753;SDS011;59593;51.716;7.016;2024-03-23T01:59:00;14.17;;;4.80;;
71753;SDS011;59593;51.716;7.016;2024-03-23T02:01:34;13.67;;;4.40;;
71753;SDS011;59593;51.716;7.016;2024-03-23T02:04:03;13.37;;;4.53;;
71753;SDS011;59593;51.716;7.016;2024-03-23T02:06:29;15.73;;;4.70;;
71753;SDS011;59593;51.716;7.016;2024-03-23T02:08:56;12.50;;;4.20;;
71753;SDS011;59593;51.716;7.016;2024-03-23T02:11:21;12.87;;;4.17;;
71753;SDS011;59593;51.716;7.016;2024-03-23T02:13:47;16.73;;;4.23;;
71753;SDS011;59593;51.716;7.016;2024-03-23T02:16:13;11.23;;;4.00;;
71753;SDS011;59593;51.716;7.016;2024-03-23T02:18:38;12.77;;;3.97;;
71753;SDS011;59593;51.716;7.016;2024-03-23T02:21:04;9.80;;;3.40;;
71753;SDS011;59593;51.716;7.016;2024-03-23T02:23:30;9.67;;;3.17;;
71753;SDS011;59593;51.716;7.016;2024-03-23T02:25:56;11.83;;;3.60;;
71753;SDS011;59593;51.716;7.016;2024-03-23T02:28:21;7.73;;;3.30;;
71753;SDS011;59593;51.716;7.016;2024-03-23T02:30:48;11.57;;;3.60;;
71753;SDS011;59593;51.716;7.016;2024-03-23T02:33:14;9.87;;;3.43;;
71753;SDS011;59593;51.716;7.016;2024-03-23T02:35:40;13.93;;;3.67;;
71753;SDS011;59593;51.716;7.016;2024-03-23T02:38:05;12.33;;;4.17;;
71753;SDS011;59593;51.716;7.016;2024-03-23T02:40:31;9.97;;;3.87;;
71753;SDS011;59593;51.716;7.016;2024-03-23T02:42:57;13.30;;;3.87;;
71753;SDS011;59593;51.716;7.016;2024-03-23T02:45:22;9.37;;;3.17;;
71753;SDS011;59593;51.716;7.016;2024-03-23T02:47:48;11.33;;;3.70;;
71753;SDS011;59593;51.716;7.016;2024-03-23T02:50:17;9.77;;;3.40;;
71753;SDS011;59593;51.716;7.016;2024-03-23T02:52:46;12.17;;;3.63;;
71753;SDS011;59593;51.716;7.016;2024-03-23T02:55:12;10.40;;;3.20;;
71753;SDS011;59593;51.716;7.016;2024-03-23T02:57:38;11.97;;;3.37;;
71753;SDS011;59593;51.716;7.016;2024-03-23T03:00:04;8.97;;;2.93;;
71753;SDS011;59593;51.716;7.016;2024-03-23T03:02:31;11.80;;;3.50;;
71753;SDS011;59593;51.716;7.016;2024-03-23T03:04:57;12.93;;;3.10;;
71753;SDS011;59593;51.716;7.016;2024-03-23T03:07:23;8.87;;;3.00;;
71753;SDS011;59593;51.716;7.016;2024-03-23T03:09:48;9.97;;;2.93;;
71753;SDS011;59593;51.716;7.016;2024-03-23T03:12:14;9.30;;;2.80;;
71753;SDS011;59593;51.716;7.016;2024-03-23T03:14:39;11.97;;;2.90;;
71753;SDS011;59593;51.716;7.016;2024-03-23T03:17:05;9.73;;;2.90;;
71753;SDS011;59593;51.716;7.016;2024-03-23T03:19:31;9.70;;;2.90;;
71753;SDS011;59593;51.716;7.016;2024-03-23T03:21:57;13.90;;;3.40;;
71753;SDS011;59593;51.716;7.016;2024-03-23T03:24:22;10.00;;;2.77;;
71753;SDS011;59593;51.716;7.016;2024-03-23T03:26:48;9.80;;;3.00;;
71753;SDS011;59593;51.716;7.016;2024-03-23T03:29:14;8.60;;;2.73;;
71753;SDS011;59593;51.716;7.016;2024-03-23T03:31:40;11.90;;;2.80;;
71753;SDS011;59593;51.716;7.016;2024-03-23T03:34:06;9.23;;;2.80;;
71753;SDS011;59593;51.716;7.016;2024-03-23T03:36:31;8.63;;;2.80;;
71753;SDS011;59593;51.716;7.016;2024-03-23T03:38:57;12.10;;;3.07;;
71753;SDS011;59593;51.716;7.016;2024-03-23T03:41:22;9.13;;;2.67;;
71753;SDS011;59593;51.716;7.016;2024-03-23T03:43:48;10.83;;;2.90;;
71753;SDS011;59593;51.716;7.016;2024-03-23T03:46:14;9.40;;;2.50;;
71753;SDS011;59593;51.716;7.016;2024-03-23T03:48:39;10.03;;;2.57;;
71753;SDS011;59593;51.716;7.016;2024-03-23T03:51:05;10.17;;;2.90;;
71753;SDS011;59593;51.716;7.016;2024-03-23T03:53:30;8.27;;;2.80;;
71753;SDS011;59593;51.716;7.016;2024-03-23T03:55:56;12.07;;;3.73;;
71753;SDS011;59593;51.716;7.016;2024-03-23T03:58:25;11.50;;;2.93;;
71753;SDS011;59593;51.716;7.016;2024-03-23T04:00:51;8.27;;;2.63;;
71753;SDS011;59593;51.716;7.016;2024-03-23T04:03:17;11.67;;;2.70;;
71753;SDS011;59593;51.716;7.016;2024-03-23T04:05:42;11.67;;;2.80;;
71753;SDS011;59593;51.716;7.016;2024-03-23T04:08:08;8.67;;;2.73;;
71753;SDS011;59593;51.716;7.016;2024-03-23T04:10:33;9.23;;;2.63;;
71753;SDS011;59593;51.716;7.016;2024-03-23T04:12:59;10.43;;;2.67;;
71753;SDS011;59593;51.716;7.016;2024-03-23T04:15:26;9.23;;;2.80;;
71753;SDS011;59593;51.716;7.016;2024-03-23T04:17:51;8.70;;;2.90;;
71753;SDS011;59593;51.716;7.016;2024-03-23T04:20:17;8.93;;;2.90;;
71753;SDS011;59593;51.716;7.016;2024-03-23T04:22:43;15.13;;;3.23;;
71753;SDS011;59593;51.716;7.016;2024-03-23T04:25:09;11.17;;;3.03;;
71753;SDS011;59593;51.716;7.016;2024-03-23T04:27:38;8.40;;;2.53;;
71753;SDS011;59593;51.716;7.016;2024-03-23T04:30:05;10.23;;;2.83;;
71753;SDS011;59593;51.716;7.016;2024-03-23T04:32:36;12.00;;;2.77;;
71753;SDS011;59593;51.716;7.016;2024-03-23T04:35:02;8.87;;;2.90;;
71753;SDS011;59593;51.716;7.016;2024-03-23T04:37:31;11.03;;;3.17;;
71753;SDS011;59593;51.716;7.016;2024-03-23T04:39:57;8.17;;;3.00;;
71753;SDS011;59593;51.716;7.016;2024-03-23T04:42:23;13.33;;;3.30;;
71753;SDS011;59593;51.716;7.016;2024-03-23T04:44:49;12.07;;;3.00;;
71753;SDS011;59593;51.716;7.016;2024-03-23T04:47:15;10.53;;;3.10;;
71753;SDS011;59593;51.716;7.016;2024-03-23T04:49:41;11.43;;;3.20;;
71753;SDS011;59593;51.716;7.016;2024-03-23T04:52:07;8.33;;;2.87;;
71753;SDS011;59593;51.716;7.016;2024-03-23T04:54:32;11.73;;;3.30;;
71753;SDS011;59593;51.716;7.016;2024-03-23T04:56:58;13.17;;;3.40;;
71753;SDS011;59593;51.716;7.016;2024-03-23T04:59:24;10.03;;;3.50;;
71753;SDS011;59593;51.716;7.016;2024-03-23T05:01:50;13.00;;;3.70;;
71753;SDS011;59593;51.716;7.016;2024-03-23T05:04:15;13.33;;;3.57;;
71753;SDS011;59593;51.716;7.016;2024-03-23T05:06:41;9.40;;;3.10;;
71753;SDS011;59593;51.716;7.016;2024-03-23T05:09:07;10.30;;;3.47;;
71753;SDS011;59593;51.716;7.016;2024-03-23T05:11:36;12.00;;;4.00;;
71753;SDS011;59593;51.716;7.016;2024-03-23T05:14:02;10.13;;;3.93;;
71753;SDS011;59593;51.716;7.016;2024-03-23T05:16:28;14.73;;;4.67;;
71753;SDS011;59593;51.716;7.016;2024-03-23T05:18:53;11.10;;;3.90;;
71753;SDS011;59593;51.716;7.016;2024-03-23T05:21:19;14.73;;;4.00;;
71753;SDS011;59593;51.716;7.016;2024-03-23T05:23:46;10.57;;;4.53;;
71753;SDS011;59593;51.716;7.016;2024-03-23T05:26:12;9.93;;;4.40;;
71753;SDS011;59593;51.716;7.016;2024-03-23T05:28:38;15.03;;;4.67;;
71753;SDS011;59593;51.716;7.016;2024-03-23T05:31:04;15.87;;;5.20;;
71753;SDS011;59593;51.716;7.016;2024-03-23T05:33:30;12.73;;;4.83;;
71753;SDS011;59593;51.716;7.016;2024-03-23T05:35:59;11.57;;;5.37;;
71753;SDS011;59593;51.716;7.016;2024-03-23T05:38:26;15.47;;;5.67;;
71753;SDS011;59593;51.716;7.016;2024-03-23T05:40:53;15.10;;;5.23;;
71753;SDS011;59593;51.716;7.016;2024-03-23T05:43:19;12.73;;;5.13;;
71753;SDS011;59593;51.716;7.016;2024-03-23T05:45:45;17.27;;;5.27;;
71753;SDS011;59593;51.716;7.016;2024-03-23T05:48:11;12.90;;;5.93;;
71753;SDS011;59593;51.716;7.016;2024-03-23T05:50:36;18.27;;;6.03;;
71753;SDS011;59593;51.716;7.016;2024-03-23T05:53:02;16.40;;;5.33;;
71753;SDS011;59593;51.716;7.016;2024-03-23T05:55:30;14.03;;;5.47;;
71753;SDS011;59593;51.716;7.016;2024-03-23T05:57:55;14.77;;;5.53;;
71753;SDS011;59593;51.716;7.016;2024-03-23T06:00:21;13.77;;;6.23;;
71753;SDS011;59593;51.716;7.016;2024-03-23T06:02:46;14.90;;;6.37;;
71753;SDS011;59593;51.716;7.016;2024-03-23T06:05:12;16.40;;;6.70;;
71753;SDS011;59593;51.716;7.016;2024-03-23T06:07:38;16.77;;;6.50;;
71753;SDS011;59593;51.716;7.016;2024-03-23T06:10:04;22.47;;;6.97;;
71753;SDS011;59593;51.716;7.016;2024-03-23T06:12:30;18.20;;;6.77;;
71753;SDS011;59593;51.716;7.016;2024-03-23T06:14:56;17.87;;;6.83;;
71753;SDS011;59593;51.716;7.016;2024-03-23T06:17:22;17.80;;;7.13;;
71753;SDS011;59593;51.716;7.016;2024-03-23T06:19:48;17.03;;;6.50;;
71753;SDS011;59593;51.716;7.016;2024-03-23T06:22:14;16.63;;;6.80;;
71753;SDS011;59593;51.716;7.016;2024-03-23T06:24:39;15.93;;;6.83;;
71753;SDS011;59593;51.716;7.016;2024-03-23T06:27:05;16.37;;;7.27;;
71753;SDS011;59593;51.716;7.016;2024-03-23T06:29:31;15.83;;;7.10;;
71753;SDS011;59593;51.716;7.016;2024-03-23T06:31:57;18.03;;;7.30;;
71753;SDS011;59593;51.716;7.016;2024-03-23T06:34:23;18.30;;;7.27;;
71753;SDS011;59593;51.716;7.016;2024-03-23T06:36:48;19.30;;;7.93;;
71753;SDS011;59593;51.716;7.016;2024-03-23T06:39:14;21.20;;;7.77;;
71753;SDS011;59593;51.716;7.016;2024-03-23T06:41:41;15.90;;;7.07;;
71753;SDS011;59593;51.716;7.016;2024-03-23T06:44:07;17.67;;;7.10;;
71753;SDS011;59593;51.716;7.016;2024-03-23T06:46:33;19.03;;;6.80;;
71753;SDS011;59593;51.716;7.016;2024-03-23T06:48:59;18.80;;;7.13;;
71753;SDS011;59593;51.716;7.016;2024-03-23T06:51:24;17.03;;;7.43;;
71753;SDS011;59593;51.716;7.016;2024-03-23T06:53:50;14.83;;;6.20;;
71753;SDS011;59593;51.716;7.016;2024-03-23T06:56:15;15.37;;;7.20;;
71753;SDS011;59593;51.716;7.016;2024-03-23T06:58:41;17.80;;;7.53;;
71753;SDS011;59593;51.716;7.016;2024-03-23T07:01:07;22.73;;;7.07;;
71753;SDS011;59593;51.716;7.016;2024-03-23T07:03:32;19.53;;;7.50;;
71753;SDS011;59593;51.716;7.016;2024-03-23T07:05:58;18.23;;;7.00;;
71753;SDS011;59593;51.716;7.016;2024-03-23T07:08:24;16.73;;;6.47;;
71753;SDS011;59593;51.716;7.016;2024-03-23T07:10:49;18.10;;;6.73;;
71753;SDS011;59593;51.716;7.016;2024-03-23T07:13:15;16.17;;;6.80;;
71753;SDS011;59593;51.716;7.016;2024-03-23T07:15:42;17.53;;;6.07;;
71753;SDS011;59593;51.716;7.016;2024-03-23T07:18:08;16.43;;;5.87;;
71753;SDS011;59593;51.716;7.016;2024-03-23T07:20:33;13.63;;;5.93;;
71753;SDS011;59593;51.716;7.016;2024-03-23T07:22:59;19.70;;;5.83;;
71753;SDS011;59593;51.716;7.016;2024-03-23T07:25:25;18.77;;;6.20;;
71753;SDS011;59593;51.716;7.016;2024-03-23T07:27:53;17.90;;;6.40;;
71753;SDS011;59593;51.716;7.016;2024-03-23T07:30:18;11.07;;;5.30;;
71753;SDS011;59593;51.716;7.016;2024-03-23T07:32:44;13.10;;;5.37;;
71753;SDS011;59593;51.716;7.016;2024-03-23T07:35:10;15.83;;;5.10;;
71753;SDS011;59593;51.716;7.016;2024-03-23T07:37:35;15.37;;;5.40;;
71753;SDS011;59593;51.716;7.016;2024-03-23T07:40:01;14.43;;;5.20;;
71753;SDS011;59593;51.716;7.016;2024-03-23T07:42:26;17.93;;;6.23;;
71753;SDS011;59593;51.716;7.016;2024-03-23T07:44:53;14.40;;;5.43;;
71753;SDS011;59593;51.716;7.016;2024-03-23T07:47:21;13.17;;;4.60;;
71753;SDS011;59593;51.716;7.016;2024-03-23T07:49:47;13.43;;;4.63;;
71753;SDS011;59593;51.716;7.016;2024-03-23T07:52:13;11.90;;;4.70;;
71753;SDS011;59593;51.716;7.016;2024-03-23T07:54:39;16.47;;;4.70;;
71753;SDS011;59593;51.716;7.016;2024-03-23T07:57:04;14.20;;;4.27;;
71753;SDS011;59593;51.716;7.016;2024-03-23T07:59:31;19.47;;;3.97;;
71753;SDS011;59593;51.716;7.016;2024-03-23T08:01:58;11.83;;;4.37;;
71753;SDS011;59593;51.716;7.016;2024-03-23T08:04:25;13.70;;;4.43;;
71753;SDS011;59593;51.716;7.016;2024-03-23T08:06:52;15.70;;;4.70;;
71753;SDS011;59593;51.716;7.016;2024-03-23T08:09:17;11.33;;;4.27;;
71753;SDS011;59593;51.716;7.016;2024-03-23T08:11:43;13.43;;;3.87;;
71753;SDS011;59593;51.716;7.016;2024-03-23T08:14:11;14.93;;;4.10;;
71753;SDS011;59593;51.716;7.016;2024-03-23T08:16:37;11.23;;;4.30;;
71753;SDS011;59593;51.716;7.016;2024-03-23T08:19:03;17.23;;;4.50;;
71753;SDS011;59593;51.716;7.016;2024-03-23T08:21:28;12.77;;;4.33;;
71753;SDS011;59593;51.716;7.016;2024-03-23T08:23:54;12.33;;;4.43;;
71753;SDS011;59593;51.716;7.016;2024-03-23T08:26:20;14.17;;;4.80;;
71753;SDS011;59593;51.716;7.016;2024-03-23T08:28:45;14.63;;;4.43;;
71753;SDS011;59593;51.716;7.016;2024-03-23T08:31:11;14.43;;;4.80;;
71753;SDS011;59593;51.716;7.016;2024-03-23T08:33:38;12.67;;;5.10;;
71753;SDS011;59593;51.716;7.016;2024-03-23T08:36:05;16.77;;;5.33;;
71753;SDS011;59593;51.716;7.016;2024-03-23T08:38:31;15.07;;;5.30;;
71753;SDS011;59593;51.716;7.016;2024-03-23T08:43:23;13.33;;;5.13;;
71753;SDS011;59593;51.716;7.016;2024-03-23T08:45:49;15.63;;;5.40;;
71753;SDS011;59593;51.716;7.016;2024-03-23T08:48:17;12.53;;;5.80;;
71753;SDS011;59593;51.716;7.016;2024-03-23T08:50:45;14.83;;;5.57;;
71753;SDS011;59593;51.716;7.016;2024-03-23T08:53:11;16.17;;;6.13;;
71753;SDS011;59593;51.716;7.016;2024-03-23T08:55:37;12.47;;;4.93;;
71753;SDS011;59593;51.716;7.016;2024-03-23T08:58:02;17.20;;;6.03;;
71753;SDS011;59593;51.716;7.016;2024-03-23T09:00:29;13.50;;;5.03;;
71753;SDS011;59593;51.716;7.016;2024-03-23T09:02:55;10.70;;;4.83;;
71753;SDS011;59593;51.716;7.016;2024-03-23T09:05:21;12.97;;;5.50;;
71753;SDS011;59593;51.716;7.016;2024-03-23T09:07:50;12.33;;;4.40;;
71753;SDS011;59593;51.716;7.016;2024-03-23T09:10:16;9.63;;;4.27;;
71753;SDS011;59593;51.716;7.016;2024-03-23T09:12:41;12.90;;;3.90;;
71753;SDS011;59593;51.716;7.016;2024-03-23T09:15:07;9.20;;;3.83;;
71753;SDS011;59593;51.716;7.016;2024-03-23T09:17:32;12.93;;;4.20;;
71753;SDS011;59593;51.716;7.016;2024-03-23T09:19:58;15.03;;;4.17;;
71753;SDS011;59593;51.716;7.016;2024-03-23T09:22:24;8.27;;;3.97;;
71753;SDS011;59593;51.716;7.016;2024-03-23T09:24:49;12.97;;;3.77;;
71753;SDS011;59593;51.716;7.016;2024-03-23T09:27:15;14.90;;;4.10;;
71753;SDS011;59593;51.716;7.016;2024-03-23T09:29:40;11.83;;;3.97;;
71753;SDS011;59593;51.716;7.016;2024-03-23T09:32:06;10.13;;;3.93;;
71753;SDS011;59593;51.716;7.016;2024-03-23T09:34:32;13.27;;;3.47;;
71753;SDS011;59593;51.716;7.016;2024-03-23T09:36:59;14.57;;;3.60;;
71753;SDS011;59593;51.716;7.016;2024-03-23T09:39:24;9.53;;;2.80;;
71753;SDS011;59593;51.716;7.016;2024-03-23T09:41:50;9.13;;;2.83;;
71753;SDS011;59593;51.716;7.016;2024-03-23T09:44:15;9.97;;;2.57;;
71753;SDS011;59593;51.716;7.016;2024-03-23T09:46:41;10.70;;;2.87;;
71753;SDS011;59593;51.716;7.016;2024-03-23T09:49:07;8.87;;;3.00;;
71753;SDS011;59593;51.716;7.016;2024-03-23T09:51:35;7.60;;;2.70;;
71753;SDS011;59593;51.716;7.016;2024-03-23T09:54:01;10.63;;;2.73;;
71753;SDS011;59593;51.716;7.016;2024-03-23T09:56:27;7.47;;;2.43;;
71753;SDS011;59593;51.716;7.016;2024-03-23T09:58:59;9.13;;;2.53;;
71753;SDS011;59593;51.716;7.016;2024-03-23T10:01:26;5.97;;;2.00;;
71753;SDS011;59593;51.716;7.016;2024-03-23T10:03:51;8.70;;;2.20;;
71753;SDS011;59593;51.716;7.016;2024-03-23T10:06:17;8.67;;;2.40;;
71753;SDS011;59593;51.716;7.016;2024-03-23T10:08:47;8.27;;;2.07;;
71753;SDS011;59593;51.716;7.016;2024-03-23T10:11:13;5.90;;;2.20;;
71753;SDS011;59593;51.716;7.016;2024-03-23T10:13:41;9.00;;;2.60;;
71753;SDS011;59593;51.716;7.016;2024-03-23T10:16:08;8.33;;;2.30;;
71753;SDS011;59593;51.716;7.016;2024-03-23T10:18:38;9.10;;;3.13;;
71753;SDS011;59593;51.716;7.016;2024-03-23T10:21:10;7.80;;;2.10;;
71753;SDS011;59593;51.716;7.016;2024-03-23T10:23:37;7.50;;;1.87;;
71753;SDS011;59593;51.716;7.016;2024-03-23T10:26:12;6.97;;;2.10;;
71753;SDS011;59593;51.716;7.016;2024-03-23T10:31:32;6.90;;;1.90;;
71753;SDS011;59593;51.716;7.016;2024-03-23T10:33:59;6.33;;;1.60;;
71753;SDS011;59593;51.716;7.016;2024-03-23T10:36:25;6.33;;;2.20;;
71753;SDS011;59593;51.716;7.016;2024-03-23T10:38:52;8.37;;;2.00;;
71753;SDS011;59593;51.716;7.016;2024-03-23T10:41:19;10.00;;;2.33;;
71753;SDS011;59593;51.716;7.016;2024-03-23T10:43:45;8.27;;;2.20;;
71753;SDS011;59593;51.716;7.016;2024-03-23T10:46:12;6.60;;;1.87;;
71753;SDS011;59593;51.716;7.016;2024-03-23T10:48:37;7.97;;;2.10;;
71753;SDS011;59593;51.716;7.016;2024-03-23T10:51:03;6.40;;;1.80;;
71753;SDS011;59593;51.716;7.016;2024-03-23T10:53:32;8.03;;;2.00;;
71753;SDS011;59593;51.716;7.016;2024-03-23T10:55:59;9.37;;;2.37;;
71753;SDS011;59593;51.716;7.016;2024-03-23T10:58:26;8.13;;;1.67;;
71753;SDS011;59593;51.716;7.016;2024-03-23T11:01:03;5.97;;;1.90;;
71753;SDS011;59593;51.716;7.016;2024-03-23T11:03:29;4.57;;;1.73;;
71753;SDS011;59593;51.716;7.016;2024-03-23T11:05:58;6.03;;;1.50;;
71753;SDS011;59593;51.716;7.016;2024-03-23T11:13:44;5.07;;;1.50;;
71753;SDS011;59593;51.716;7.016;2024-03-23T11:16:30;5.27;;;1.70;;
71753;SDS011;59593;51.716;7.016;2024-03-23T11:22:01;4.03;;;1.27;;
71753;SDS011;59593;51.716;7.016;2024-03-23T11:24:27;3.93;;;1.30;;
71753;SDS011;59593;51.716;7.016;2024-03-23T11:26:52;4.27;;;1.07;;
71753;SDS011;59593;51.716;7.016;2024-03-23T11:29:19;4.30;;;1.33;;
71753;SDS011;59593;51.716;7.016;2024-03-23T11:31:48;6.33;;;1.40;;
71753;SDS011;59593;51.716;7.016;2024-03-23T11:34:15;4.07;;;1.60;;
71753;SDS011;59593;51.716;7.016;2024-03-23T11:36:41;4.07;;;1.60;;
71753;SDS011;59593;51.716;7.016;2024-03-23T11:39:17;4.50;;;1.40;;
71753;SDS011;59593;51.716;7.016;2024-03-23T11:41:47;4.13;;;1.40;;
71753;SDS011;59593;51.716;7.016;2024-03-23T11:44:17;5.07;;;1.60;;
71753;SDS011;59593;51.716;7.016;2024-03-23T11:46:43;2.67;;;1.13;;
71753;SDS011;59593;51.716;7.016;2024-03-23T11:51:48;4.97;;;1.77;;
71753;SDS011;59593;51.716;7.016;2024-03-23T11:54:14;7.97;;;1.60;;
71753;SDS011;59593;51.716;7.016;2024-03-23T11:56:39;5.60;;;1.60;;
71753;SDS011;59593;51.716;7.016;2024-03-23T11:59:08;6.13;;;1.43;;
71753;SDS011;59593;51.716;7.016;2024-03-23T12:01:33;7.77;;;1.80;;
71753;SDS011;59593;51.716;7.016;2024-03-23T12:03:59;7.17;;;1.60;;
71753;SDS011;59593;51.716;7.016;2024-03-23T12:06:25;6.20;;;1.67;;
71753;SDS011;59593;51.716;7.016;2024-03-23T12:08:50;7.27;;;1.90;;
71753;SDS011;59593;51.716;7.016;2024-03-23T12:11:16;6.43;;;1.67;;
71753;SDS011;59593;51.716;7.016;2024-03-23T12:13:43;4.43;;;1.70;;
71753;SDS011;59593;51.716;7.016;2024-03-23T12:18:45;8.00;;;2.00;;
71753;SDS011;59593;51.716;7.016;2024-03-23T12:21:12;10.33;;;2.13;;
71753;SDS011;59593;51.716;7.016;2024-03-23T12:23:41;6.53;;;2.00;;
71753;SDS011;59593;51.716;7.016;2024-03-23T12:26:09;6.77;;;2.23;;
71753;SDS011;59593;51.716;7.016;2024-03-23T12:28:35;8.77;;;2.07;;
71753;SDS011;59593;51.716;7.016;2024-03-23T12:31:00;7.57;;;2.00;;
71753;SDS011;59593;51.716;7.016;2024-03-23T12:33:26;7.77;;;2.67;;
71753;SDS011;59593;51.716;7.016;2024-03-23T12:35:51;7.80;;;2.40;;
71753;SDS011;59593;51.716;7.016;2024-03-23T12:38:18;6.90;;;2.10;;
71753;SDS011;59593;51.716;7.016;2024-03-23T12:40:47;11.33;;;2.53;;
71753;SDS011;59593;51.716;7.016;2024-03-23T12:43:14;7.73;;;2.53;;
71753;SDS011;59593;51.716;7.016;2024-03-23T12:45:40;6.77;;;2.07;;
71753;SDS011;59593;51.716;7.016;2024-03-23T12:48:05;6.37;;;2.27;;
71753;SDS011;59593;51.716;7.016;2024-03-23T12:50:31;10.57;;;2.57;;
71753;SDS011;59593;51.716;7.016;2024-03-23T12:52:57;8.70;;;3.17;;
71753;SDS011;59593;51.716;7.016;2024-03-23T12:55:23;9.40;;;2.60;;
71753;SDS011;59593;51.716;7.016;2024-03-23T12:57:48;7.17;;;2.17;;
71753;SDS011;59593;51.716;7.016;2024-03-23T13:00:14;6.13;;;2.23;;
71753;SDS011;59593;51.716;7.016;2024-03-23T13:02:42;7.47;;;2.30;;
71753;SDS011;59593;51.716;7.016;2024-03-23T13:05:09;9.60;;;2.20;;
71753;SDS011;59593;51.716;7.016;2024-03-23T13:07:35;7.17;;;1.83;;
71753;SDS011;59593;51.716;7.016;2024-03-23T13:10:02;9.57;;;2.10;;
71753;SDS011;59593;51.716;7.016;2024-03-23T13:12:28;6.20;;;1.70;;
71753;SDS011;59593;51.716;7.016;2024-03-23T13:14:54;6.23;;;1.60;;
71753;SDS011;59593;51.716;7.016;2024-03-23T13:17:20;7.17;;;1.60;;
71753;SDS011;59593;51.716;7.016;2024-03-23T13:19:45;3.47;;;1.10;;
71753;SDS011;59593;51.716;7.016;2024-03-23T13:22:11;7.80;;;1.63;;
71753;SDS011;59593;51.716;7.016;2024-03-23T13:24:37;5.07;;;1.27;;
71753;SDS011;59593;51.716;7.016;2024-03-23T13:27:03;4.30;;;1.30;;
71753;SDS011;59593;51.716;7.016;2024-03-23T13:29:30;9.03;;;2.30;;
71753;SDS011;59593;51.716;7.016;2024-03-23T13:31:56;8.30;;;2.30;;
71753;SDS011;59593;51.716;7.016;2024-03-23T13:34:21;6.43;;;1.80;;
71753;SDS011;59593;51.716;7.016;2024-03-23T13:36:47;4.77;;;1.40;;
71753;SDS011;59593;51.716;7.016;2024-03-23T13:39:13;6.23;;;1.40;;
71753;SDS011;59593;51.716;7.016;2024-03-23T13:41:41;6.87;;;1.50;;
71753;SDS011;59593;51.716;7.016;2024-03-23T13:44:08;6.03;;;1.70;;
71753;SDS011;59593;51.716;7.016;2024-03-23T13:46:38;5.17;;;1.70;;
71753;SDS011;59593;51.716;7.016;2024-03-23T13:49:05;4.63;;;1.40;;
71753;SDS011;59593;51.716;7.016;2024-03-23T13:51:31;4.13;;;1.37;;
71753;SDS011;59593;51.716;7.016;2024-03-23T13:53:57;4.37;;;1.47;;
71753;SDS011;59593;51.716;7.016;2024-03-23T13:56:25;4.10;;;1.50;;
71753;SDS011;59593;51.716;7.016;2024-03-23T13:58:54;6.17;;;1.60;;
71753;SDS011;59593;51.716;7.016;2024-03-23T14:01:23;4.70;;;1.50;;
71753;SDS011;59593;51.716;7.016;2024-03-23T14:03:49;6.13;;;1.50;;
71753;SDS011;59593;51.716;7.016;2024-03-23T14:06:15;4.27;;;1.47;;
71753;SDS011;59593;51.716;7.016;2024-03-23T14:08:41;5.03;;;1.50;;
71753;SDS011;59593;51.716;7.016;2024-03-23T14:11:08;6.47;;;1.80;;
71753;SDS011;59593;51.716;7.016;2024-03-23T14:13:34;3.67;;;1.40;;
71753;SDS011;59593;51.716;7.016;2024-03-23T14:16:00;4.37;;;1.13;;
71753;SDS011;59593;51.716;7.016;2024-03-23T14:18:26;5.17;;;1.20;;
71753;SDS011;59593;51.716;7.016;2024-03-23T14:20:52;4.37;;;1.60;;
71753;SDS011;59593;51.716;7.016;2024-03-23T14:23:23;4.07;;;1.33;;
71753;SDS011;59593;51.716;7.016;2024-03-23T14:26:00;4.63;;;1.60;;
71753;SDS011;59593;51.716;7.016;2024-03-23T14:28:26;3.93;;;1.80;;
71753;SDS011;59593;51.716;7.016;2024-03-23T14:30:51;5.03;;;1.60;;
71753;SDS011;59593;51.716;7.016;2024-03-23T14:33:20;6.70;;;1.90;;
71753;SDS011;59593;51.716;7.016;2024-03-23T14:35:52;3.23;;;1.33;;
71753;SDS011;59593;51.716;7.016;2024-03-23T14:38:18;4.73;;;1.20;;
71753;SDS011;59593;51.716;7.016;2024-03-23T14:40:44;6.30;;;1.50;;
71753;SDS011;59593;51.716;7.016;2024-03-23T14:43:11;4.10;;;1.30;;
71753;SDS011;59593;51.716;7.016;2024-03-23T14:45:36;3.73;;;1.40;;
71753;SDS011;59593;51.716;7.016;2024-03-23T14:48:03;3.43;;;1.00;;
71753;SDS011;59593;51.716;7.016;2024-03-23T14:50:29;5.00;;;1.30;;
71753;SDS011;59593;51.716;7.016;2024-03-23T14:52:55;5.30;;;1.37;;
71753;SDS011;59593;51.716;7.016;2024-03-23T14:55:21;3.27;;;1.13;;
71753;SDS011;59593;51.716;7.016;2024-03-23T14:57:47;4.43;;;1.13;;
71753;SDS011;59593;51.716;7.016;2024-03-23T15:00:15;7.93;;;1.30;;
71753;SDS011;59593;51.716;7.016;2024-03-23T15:02:43;1.93;;;1.00;;
71753;SDS011;59593;51.716;7.016;2024-03-23T15:05:10;4.07;;;1.10;;
71753;SDS011;59593;51.716;7.016;2024-03-23T15:07:36;4.10;;;1.30;;
71753;SDS011;59593;51.716;7.016;2024-03-23T15:10:05;3.90;;;1.20;;
71753;SDS011;59593;51.716;7.016;2024-03-23T15:12:31;5.43;;;1.20;;
71753;SDS011;59593;51.716;7.016;2024-03-23T15:14:58;3.23;;;1.20;;
71753;SDS011;59593;51.716;7.016;2024-03-23T15:17:25;5.50;;;1.27;;
71753;SDS011;59593;51.716;7.016;2024-03-23T15:19:52;4.80;;;1.33;;
71753;SDS011;59593;51.716;7.016;2024-03-23T15:22:18;4.87;;;1.20;;
71753;SDS011;59593;51.716;7.016;2024-03-23T15:24:46;7.17;;;1.23;;
71753;SDS011;59593;51.716;7.016;2024-03-23T15:27:12;5.30;;;1.40;;
71753;SDS011;59593;51.716;7.016;2024-03-23T15:29:37;3.60;;;1.23;;
71753;SDS011;59593;51.716;7.016;2024-03-23T15:32:03;5.00;;;1.20;;
71753;SDS011;59593;51.716;7.016;2024-03-23T15:34:29;5.67;;;1.27;;
71753;SDS011;59593;51.716;7.016;2024-03-23T15:36:55;4.07;;;1.07;;
71753;SDS011;59593;51.716;7.016;2024-03-23T15:39:20;3.50;;;1.20;;
71753;SDS011;59593;51.716;7.016;2024-03-23T15:41:47;3.30;;;1.20;;
71753;SDS011;59593;51.716;7.016;2024-03-23T15:44:13;3.10;;;1.13;;
71753;SDS011;59593;51.716;7.016;2024-03-23T15:46:39;4.33;;;1.43;;
71753;SDS011;59593;51.716;7.016;2024-03-23T15:49:05;4.00;;;1.33;;